sensor_id;sensor_type;location;lat;lon;timestamp;pressure;altitude;pressure_sealevel;temperature;humidity
36234;BME280;43467;50.890;5.982;2024-03-07T00:00:42;100976.59;;;9.60;69.41
36234;BME280;43467;50.890;5.982;2024-03-07T00:03:07;100971.25;;;9.61;69.21
36234;BME280;43467;50.890;5.982;2024-03-07T00:05:33;100970.56;;;9.55;69.69
36234;BME280;43467;50.890;5.982;2024-03-07T00:07:59;100968.78;;;9.55;69.53
36234;BME280;43467;50.890;5.982;2024-03-07T00:10:24;100973.94;;;9.60;69.55
36234;BME280;43467;50.890;5.982;2024-03-07T00:12:50;100973.16;;;9.56;69.38
36234;BME280;43467;50.890;5.982;2024-03-07T00:15:15;100969.56;;;9.59;69.29
36234;BME280;43467;50.890;5.982;2024-03-07T00:17:41;100969.75;;;9.53;70.25
36234;BME280;43467;50.890;5.982;2024-03-07T00:20:08;100968.88;;;9.52;70.64
36234;BME280;43467;50.890;5.982;2024-03-07T00:22:37;100974.91;;;9.57;70.31
36234;BME280;43467;50.890;5.982;2024-03-07T00:25:03;100973.06;;;9.59;70.25
36234;BME280;43467;50.890;5.982;2024-03-07T00:27:32;100973.94;;;9.60;70.08
36234;BME280;43467;50.890;5.982;2024-03-07T00:30:03;100972.09;;;9.62;69.93
36234;BME280;43467;50.890;5.982;2024-03-07T00:32:30;100976.63;;;9.58;70.24
36234;BME280;43467;50.890;5.982;2024-03-07T00:35:01;100968.66;;;9.60;70.07
36234;BME280;43467;50.890;5.982;2024-03-07T00:37:28;100967.81;;;9.58;69.76
36234;BME280;43467;50.890;5.982;2024-03-07T00:39:54;100973.16;;;9.56;69.27
36234;BME280;43467;50.890;5.982;2024-03-07T00:42:19;100973.41;;;9.49;68.75
36234;BME280;43467;50.890;5.982;2024-03-07T00:44:44;100967.13;;;9.53;68.58
36234;BME280;43467;50.890;5.982;2024-03-07T00:47:10;100970.75;;;9.49;69.04
36234;BME280;43467;50.890;5.982;2024-03-07T00:49:35;100964.53;;;9.50;69.00
36234;BME280;43467;50.890;5.982;2024-03-07T00:52:01;100960.25;;;9.46;69.23
36234;BME280;43467;50.890;5.982;2024-03-07T00:54:27;100960.25;;;9.46;69.23
36234;BME280;43467;50.890;5.982;2024-03-07T00:56:52;100957.78;;;9.41;69.29
36234;BME280;43467;50.890;5.982;2024-03-07T00:59:19;100957.81;;;9.40;69.25
36234;BME280;43467;50.890;5.982;2024-03-07T01:01:46;100958.78;;;9.37;69.92
36234;BME280;43467;50.890;5.982;2024-03-07T01:04:11;100950.91;;;9.34;70.15
36234;BME280;43467;50.890;5.982;2024-03-07T01:06:37;100953.41;;;9.40;69.84
36234;BME280;43467;50.890;5.982;2024-03-07T01:09:03;100948.09;;;9.40;69.23
36234;BME280;43467;50.890;5.982;2024-03-07T01:11:29;100942.84;;;9.39;69.06
36234;BME280;43467;50.890;5.982;2024-03-07T01:13:54;100943.91;;;9.33;69.13
36234;BME280;43467;50.890;5.982;2024-03-07T01:16:21;100948.28;;;9.34;69.16
36234;BME280;43467;50.890;5.982;2024-03-07T01:18:46;100943.91;;;9.33;69.12
36234;BME280;43467;50.890;5.982;2024-03-07T01:21:11;100945.69;;;9.32;69.74
36234;BME280;43467;50.890;5.982;2024-03-07T01:23:37;100941.53;;;9.24;70.32
36234;BME280;43467;50.890;5.982;2024-03-07T01:26:02;100940.66;;;9.23;70.13
36234;BME280;43467;50.890;5.982;2024-03-07T01:28:28;100936.28;;;9.22;70.44
36234;BME280;43467;50.890;5.982;2024-03-07T01:30:57;100930.06;;;9.25;70.66
36234;BME280;43467;50.890;5.982;2024-03-07T01:33:23;100930.13;;;9.22;70.76
36234;BME280;43467;50.890;5.982;2024-03-07T01:35:48;100932.75;;;9.23;70.60
36234;BME280;43467;50.890;5.982;2024-03-07T01:38:16;100925.78;;;9.21;70.68
36234;BME280;43467;50.890;5.982;2024-03-07T01:40:42;100931.97;;;9.20;70.24
36234;BME280;43467;50.890;5.982;2024-03-07T01:43:08;100925.03;;;9.16;70.23
36234;BME280;43467;50.890;5.982;2024-03-07T01:45:34;100921.63;;;9.12;70.21
36234;BME280;43467;50.890;5.982;2024-03-07T01:48:04;100921.81;;;9.05;69.72
36234;BME280;43467;50.890;5.982;2024-03-07T01:50:30;100918.34;;;9.04;69.58
36234;BME280;43467;50.890;5.982;2024-03-07T01:52:55;100916.53;;;9.05;70.30
36234;BME280;43467;50.890;5.982;2024-03-07T01:55:22;100919.28;;;9.02;70.06
36234;BME280;43467;50.890;5.982;2024-03-07T01:57:50;100915.81;;;9.00;70.69
36234;BME280;43467;50.890;5.982;2024-03-07T02:00:16;100911.44;;;8.99;70.85
36234;BME280;43467;50.890;5.982;2024-03-07T02:02:44;100924.78;;;8.94;71.34
36234;BME280;43467;50.890;5.982;2024-03-07T02:05:10;100911.78;;;8.86;71.49
36234;BME280;43467;50.890;5.982;2024-03-07T02:07:36;100919.69;;;8.88;71.61
36234;BME280;43467;50.890;5.982;2024-03-07T02:10:05;100917.06;;;8.86;71.83
36234;BME280;43467;50.890;5.982;2024-03-07T02:12:31;100912.78;;;8.82;72.10
36234;BME280;43467;50.890;5.982;2024-03-07T02:14:57;100905.66;;;8.84;71.82
36234;BME280;43467;50.890;5.982;2024-03-07T02:17:24;100903.19;;;8.80;72.06
36234;BME280;43467;50.890;5.982;2024-03-07T02:19:49;100901.53;;;8.76;72.32
36234;BME280;43467;50.890;5.982;2024-03-07T02:22:18;100896.94;;;8.82;72.39
36234;BME280;43467;50.890;5.982;2024-03-07T02:24:44;100897.91;;;8.80;71.94
36234;BME280;43467;50.890;5.982;2024-03-07T02:27:10;100895.16;;;8.83;71.80
36234;BME280;43467;50.890;5.982;2024-03-07T02:29:36;100896.19;;;8.77;71.90
36234;BME280;43467;50.890;5.982;2024-03-07T02:32:02;100889.34;;;8.70;72.28
36234;BME280;43467;50.890;5.982;2024-03-07T02:34:28;100890.44;;;8.63;72.27
36234;BME280;43467;50.890;5.982;2024-03-07T02:36:54;100881.69;;;8.61;72.63
36234;BME280;43467;50.890;5.982;2024-03-07T02:39:19;100886.09;;;8.61;72.26
36234;BME280;43467;50.890;5.982;2024-03-07T02:41:46;100884.31;;;8.61;72.60
36234;BME280;43467;50.890;5.982;2024-03-07T02:44:13;100882.34;;;8.69;72.29
36234;BME280;43467;50.890;5.982;2024-03-07T02:46:39;100880.53;;;8.71;72.33
36234;BME280;43467;50.890;5.982;2024-03-07T02:49:05;100877.91;;;8.71;72.18
36234;BME280;43467;50.890;5.982;2024-03-07T02:51:30;100877.94;;;8.70;72.48
36234;BME280;43467;50.890;5.982;2024-03-07T02:53:56;100879.81;;;8.65;72.50
36234;BME280;43467;50.890;5.982;2024-03-07T02:56:22;100879.03;;;8.61;72.25
36234;BME280;43467;50.890;5.982;2024-03-07T02:58:47;100880.88;;;8.59;72.15
36234;BME280;43467;50.890;5.982;2024-03-07T03:01:12;100878.28;;;8.56;72.02
36234;BME280;43467;50.890;5.982;2024-03-07T03:03:38;100875.75;;;8.53;72.92
36234;BME280;43467;50.890;5.982;2024-03-07T03:06:07;100873.16;;;8.52;73.28
36234;BME280;43467;50.890;5.982;2024-03-07T03:08:34;100872.41;;;8.47;73.28
36234;BME280;43467;50.890;5.982;2024-03-07T03:11:00;100875.00;;;8.48;72.75
36234;BME280;43467;50.890;5.982;2024-03-07T03:13:25;100869.91;;;8.42;72.94
36234;BME280;43467;50.890;5.982;2024-03-07T03:15:54;100864.66;;;8.40;73.28
36234;BME280;43467;50.890;5.982;2024-03-07T03:18:24;100873.41;;;8.43;73.01
36234;BME280;43467;50.890;5.982;2024-03-07T03:20:52;100867.28;;;8.40;73.08
36234;BME280;43467;50.890;5.982;2024-03-07T03:23:18;100866.41;;;8.42;73.13
36234;BME280;43467;50.890;5.982;2024-03-07T03:25:46;100869.03;;;8.42;73.40
36234;BME280;43467;50.890;5.982;2024-03-07T03:28:13;100864.72;;;8.39;73.23
36234;BME280;43467;50.890;5.982;2024-03-07T03:30:40;100864.84;;;8.34;73.13
36234;BME280;43467;50.890;5.982;2024-03-07T03:33:09;100856.78;;;8.39;72.91
36234;BME280;43467;50.890;5.982;2024-03-07T03:35:35;100852.56;;;8.32;73.16
36234;BME280;43467;50.890;5.982;2024-03-07T03:38:00;100855.16;;;8.35;73.25
36234;BME280;43467;50.890;5.982;2024-03-07T03:40:26;100862.13;;;8.36;73.02
36234;BME280;43467;50.890;5.982;2024-03-07T03:42:52;100850.78;;;8.34;72.96
36234;BME280;43467;50.890;5.982;2024-03-07T03:45:18;100856.78;;;8.39;72.87
36234;BME280;43467;50.890;5.982;2024-03-07T03:47:43;100845.41;;;8.37;72.80
36234;BME280;43467;50.890;5.982;2024-03-07T03:50:11;100849.88;;;8.35;72.88
36234;BME280;43467;50.890;5.982;2024-03-07T03:52:37;100852.56;;;8.32;73.12
36234;BME280;43467;50.890;5.982;2024-03-07T03:55:03;100852.53;;;8.33;73.10
36234;BME280;43467;50.890;5.982;2024-03-07T03:57:33;100854.44;;;8.27;73.41
36234;BME280;43467;50.890;5.982;2024-03-07T03:59:59;100856.34;;;8.22;73.26
36234;BME280;43467;50.890;5.982;2024-03-07T04:02:25;100856.59;;;8.11;73.64
36234;BME280;43467;50.890;5.982;2024-03-07T04:04:53;100856.59;;;8.11;73.87
36234;BME280;43467;50.890;5.982;2024-03-07T04:07:19;100862.84;;;8.07;74.00
36234;BME280;43467;50.890;5.982;2024-03-07T04:09:45;100863.81;;;8.05;74.29
36234;BME280;43467;50.890;5.982;2024-03-07T04:12:10;100846.34;;;7.99;73.96
36234;BME280;43467;50.890;5.982;2024-03-07T04:14:45;100848.63;;;8.14;73.54
36234;BME280;43467;50.890;5.982;2024-03-07T04:17:10;100852.19;;;8.12;73.74
36234;BME280;43467;50.890;5.982;2024-03-07T04:19:42;100857.47;;;8.12;73.54
36234;BME280;43467;50.890;5.982;2024-03-07T04:22:08;100846.03;;;8.13;73.28
36234;BME280;43467;50.890;5.982;2024-03-07T04:24:35;100848.56;;;8.16;73.34
36234;BME280;43467;50.890;5.982;2024-03-07T04:27:02;100850.41;;;8.14;73.27
36234;BME280;43467;50.890;5.982;2024-03-07T04:29:31;100849.63;;;8.10;73.68
36234;BME280;43467;50.890;5.982;2024-03-07T04:31:58;100853.25;;;8.05;73.70
36234;BME280;43467;50.890;5.982;2024-03-07T04:34:24;100851.84;;;7.91;74.23
36234;BME280;43467;50.890;5.982;2024-03-07T04:36:49;100845.94;;;7.82;74.54
36234;BME280;43467;50.890;5.982;2024-03-07T04:39:15;100846.94;;;7.76;74.89
36234;BME280;43467;50.890;5.982;2024-03-07T04:41:59;100851.34;;;7.76;74.90
36234;BME280;43467;50.890;5.982;2024-03-07T04:44:26;100841.88;;;7.67;75.08
36234;BME280;43467;50.890;5.982;2024-03-07T04:46:51;100842.84;;;7.65;75.40
36234;BME280;43467;50.890;5.982;2024-03-07T04:49:24;100841.06;;;7.65;75.20
36234;BME280;43467;50.890;5.982;2024-03-07T04:51:51;100838.50;;;7.62;75.04
36234;BME280;43467;50.890;5.982;2024-03-07T04:54:21;100840.22;;;7.63;75.32
36234;BME280;43467;50.890;5.982;2024-03-07T04:56:47;100838.47;;;7.64;75.27
36234;BME280;43467;50.890;5.982;2024-03-07T04:59:13;100837.56;;;7.65;75.13
36234;BME280;43467;50.890;5.982;2024-03-07T05:01:39;100837.69;;;7.60;75.43
36234;BME280;43467;50.890;5.982;2024-03-07T05:04:05;100837.78;;;7.56;75.47
36234;BME280;43467;50.890;5.982;2024-03-07T05:06:31;100834.25;;;7.57;75.49
36234;BME280;43467;50.890;5.982;2024-03-07T05:09:02;100842.19;;;7.55;75.15
36234;BME280;43467;50.890;5.982;2024-03-07T05:11:29;100836.91;;;7.55;75.33
36234;BME280;43467;50.890;5.982;2024-03-07T05:13:55;100837.00;;;7.52;75.33
36234;BME280;43467;50.890;5.982;2024-03-07T05:16:20;100836.09;;;7.53;75.12
36234;BME280;43467;50.890;5.982;2024-03-07T05:18:46;100834.28;;;7.55;75.09
36234;BME280;43467;50.890;5.982;2024-03-07T05:21:12;100830.03;;;7.50;75.20
36234;BME280;43467;50.890;5.982;2024-03-07T05:24:13;100836.97;;;7.54;75.21
36234;BME280;43467;50.890;5.982;2024-03-07T05:26:38;100840.53;;;7.51;75.40
36234;BME280;43467;50.890;5.982;2024-03-07T05:29:07;100840.41;;;7.56;74.82
36234;BME280;43467;50.890;5.982;2024-03-07T05:31:38;100833.50;;;7.52;75.01
36234;BME280;43467;50.890;5.982;2024-03-07T05:34:09;100837.00;;;7.51;75.14
36234;BME280;43467;50.890;5.982;2024-03-07T05:36:35;100833.56;;;7.48;75.40
36234;BME280;43467;50.890;5.982;2024-03-07T05:39:01;100824.09;;;7.41;75.34
36234;BME280;43467;50.890;5.982;2024-03-07T05:41:34;100831.16;;;7.38;75.56
36234;BME280;43467;50.890;5.982;2024-03-07T05:43:59;100829.38;;;7.40;75.38
36234;BME280;43467;50.890;5.982;2024-03-07T05:46:36;100834.66;;;7.38;75.55
36234;BME280;43467;50.890;5.982;2024-03-07T05:49:06;100829.50;;;7.34;75.61
36234;BME280;43467;50.890;5.982;2024-03-07T05:51:31;100832.91;;;7.39;75.50
36234;BME280;43467;50.890;5.982;2024-03-07T05:53:57;100836.50;;;7.35;75.40
36234;BME280;43467;50.890;5.982;2024-03-07T05:56:23;100827.84;;;7.30;75.54
36234;BME280;43467;50.890;5.982;2024-03-07T05:58:48;100832.22;;;7.31;75.78
36234;BME280;43467;50.890;5.982;2024-03-07T06:01:13;100831.25;;;7.35;75.17
36234;BME280;43467;50.890;5.982;2024-03-07T06:03:40;100829.47;;;7.35;75.29
36234;BME280;43467;50.890;5.982;2024-03-07T06:06:05;100829.47;;;7.37;75.20
36234;BME280;43467;50.890;5.982;2024-03-07T06:08:36;100827.63;;;7.39;75.13
36234;BME280;43467;50.890;5.982;2024-03-07T06:11:02;100832.13;;;7.35;74.98
36234;BME280;43467;50.890;5.982;2024-03-07T06:13:27;100835.59;;;7.37;75.07
36234;BME280;43467;50.890;5.982;2024-03-07T06:15:53;100832.13;;;7.34;75.10
36234;BME280;43467;50.890;5.982;2024-03-07T06:18:18;100821.72;;;7.29;75.12
36234;BME280;43467;50.890;5.982;2024-03-07T06:20:44;100833.09;;;7.31;75.23
36234;BME280;43467;50.890;5.982;2024-03-07T06:23:10;100829.56;;;7.32;75.04
36234;BME280;43467;50.890;5.982;2024-03-07T06:25:37;100831.25;;;7.35;74.76
36234;BME280;43467;50.890;5.982;2024-03-07T06:28:13;100831.22;;;7.36;74.90
36234;BME280;43467;50.890;5.982;2024-03-07T06:30:40;100835.69;;;7.33;74.98
36234;BME280;43467;50.890;5.982;2024-03-07T06:33:06;100836.50;;;7.35;75.04
36234;BME280;43467;50.890;5.982;2024-03-07T06:35:32;100833.97;;;7.32;74.71
36234;BME280;43467;50.890;5.982;2024-03-07T06:38:11;100836.56;;;7.33;74.72
36234;BME280;43467;50.890;5.982;2024-03-07T06:40:40;100837.41;;;7.34;74.74
36234;BME280;43467;50.890;5.982;2024-03-07T06:43:09;100839.16;;;7.35;74.93
36234;BME280;43467;50.890;5.982;2024-03-07T06:45:37;100832.19;;;7.32;74.73
36234;BME280;43467;50.890;5.982;2024-03-07T06:48:05;100832.09;;;7.37;74.66
36234;BME280;43467;50.890;5.982;2024-03-07T06:50:32;100825.78;;;7.42;74.57
36234;BME280;43467;50.890;5.982;2024-03-07T06:52:58;100833.59;;;7.47;74.21
36234;BME280;43467;50.890;5.982;2024-03-07T06:55:23;100832.66;;;7.50;74.24
36234;BME280;43467;50.890;5.982;2024-03-07T06:57:48;100827.50;;;7.45;74.31
36234;BME280;43467;50.890;5.982;2024-03-07T07:00:15;100827.50;;;7.45;74.44
36234;BME280;43467;50.890;5.982;2024-03-07T07:02:47;100824.91;;;7.43;74.41
36234;BME280;43467;50.890;5.982;2024-03-07T07:05:13;100819.66;;;7.42;74.66
36234;BME280;43467;50.890;5.982;2024-03-07T07:07:46;100826.81;;;7.37;75.13
36234;BME280;43467;50.890;5.982;2024-03-07T07:10:13;100818.22;;;7.29;75.29
36234;BME280;43467;50.890;5.982;2024-03-07T07:12:46;100810.44;;;7.23;75.39
36234;BME280;43467;50.890;5.982;2024-03-07T07:15:14;100826.19;;;7.26;75.82
36234;BME280;43467;50.890;5.982;2024-03-07T07:17:41;100822.97;;;7.13;76.01
36234;BME280;43467;50.890;5.982;2024-03-07T07:20:07;100822.06;;;7.14;76.09
36234;BME280;43467;50.890;5.982;2024-03-07T07:22:39;100819.47;;;7.13;76.24
36234;BME280;43467;50.890;5.982;2024-03-07T07:25:05;100826.44;;;7.14;76.42
36234;BME280;43467;50.890;5.982;2024-03-07T07:27:35;100817.59;;;7.18;76.45
36234;BME280;43467;50.890;5.982;2024-03-07T07:30:02;100827.06;;;7.26;76.02
36234;BME280;43467;50.890;5.982;2024-03-07T07:32:28;100817.38;;;7.27;76.02
36234;BME280;43467;50.890;5.982;2024-03-07T07:34:53;100819.84;;;7.34;75.79
36234;BME280;43467;50.890;5.982;2024-03-07T07:37:19;100812.00;;;7.31;75.68
36234;BME280;43467;50.890;5.982;2024-03-07T07:39:45;100813.59;;;7.38;75.80
36234;BME280;43467;50.890;5.982;2024-03-07T07:42:11;100812.88;;;7.32;76.15
36234;BME280;43467;50.890;5.982;2024-03-07T07:44:36;100807.63;;;7.30;76.05
36234;BME280;43467;50.890;5.982;2024-03-07T07:47:02;100803.53;;;7.19;76.74
36234;BME280;43467;50.890;5.982;2024-03-07T07:49:27;100804.31;;;7.22;76.55
36234;BME280;43467;50.890;5.982;2024-03-07T07:51:53;100803.41;;;7.25;76.75
36234;BME280;43467;50.890;5.982;2024-03-07T07:54:19;100805.97;;;7.26;76.61
36234;BME280;43467;50.890;5.982;2024-03-07T07:56:46;100806.63;;;7.37;76.59
36234;BME280;43467;50.890;5.982;2024-03-07T07:59:13;100805.59;;;7.43;75.80
36234;BME280;43467;50.890;5.982;2024-03-07T08:01:38;100804.78;;;7.41;76.21
36234;BME280;43467;50.890;5.982;2024-03-07T08:04:04;100806.28;;;7.51;75.94
36234;BME280;43467;50.890;5.982;2024-03-07T08:06:29;100807.03;;;7.56;75.41
36234;BME280;43467;50.890;5.982;2024-03-07T08:08:55;100806.38;;;7.46;75.75
36234;BME280;43467;50.890;5.982;2024-03-07T08:11:20;100801.16;;;7.45;75.87
36234;BME280;43467;50.890;5.982;2024-03-07T08:13:46;100794.94;;;7.47;75.55
36234;BME280;43467;50.890;5.982;2024-03-07T08:16:15;100797.56;;;7.49;75.67
36234;BME280;43467;50.890;5.982;2024-03-07T08:18:41;100795.81;;;7.48;75.22
36234;BME280;43467;50.890;5.982;2024-03-07T08:21:06;100799.34;;;7.47;75.66
36234;BME280;43467;50.890;5.982;2024-03-07T08:23:33;100796.72;;;7.47;75.45
36234;BME280;43467;50.890;5.982;2024-03-07T08:25:58;100800.69;;;7.63;75.19
36234;BME280;43467;50.890;5.982;2024-03-07T08:28:24;100804.09;;;7.68;74.83
36234;BME280;43467;50.890;5.982;2024-03-07T08:30:49;100801.16;;;7.80;74.88
36234;BME280;43467;50.890;5.982;2024-03-07T08:33:15;100799.16;;;7.90;74.75
36234;BME280;43467;50.890;5.982;2024-03-07T08:35:40;100780.75;;;7.87;74.46
36234;BME280;43467;50.890;5.982;2024-03-07T08:38:06;100788.34;;;7.99;74.31
36234;BME280;43467;50.890;5.982;2024-03-07T08:40:33;100785.66;;;8.02;74.62
36234;BME280;43467;50.890;5.982;2024-03-07T08:42:59;100787.34;;;8.05;74.22
36234;BME280;43467;50.890;5.982;2024-03-07T08:45:26;100786.38;;;8.07;74.20
36234;BME280;43467;50.890;5.982;2024-03-07T08:47:56;100779.22;;;8.12;73.75
36234;BME280;43467;50.890;5.982;2024-03-07T08:50:23;100786.13;;;8.16;73.78
36234;BME280;43467;50.890;5.982;2024-03-07T08:52:49;100786.31;;;8.10;73.64
36234;BME280;43467;50.890;5.982;2024-03-07T08:55:16;100777.69;;;8.04;73.60
36234;BME280;43467;50.890;5.982;2024-03-07T08:57:43;100789.06;;;8.06;73.86
36234;BME280;43467;50.890;5.982;2024-03-07T09:00:12;100772.25;;;8.10;73.61
36234;BME280;43467;50.890;5.982;2024-03-07T09:02:47;100791.25;;;8.22;73.32
36234;BME280;43467;50.890;5.982;2024-03-07T09:05:13;100782.41;;;8.23;71.88
36234;BME280;43467;50.890;5.982;2024-03-07T09:07:41;100784.13;;;8.26;71.95
36234;BME280;43467;50.890;5.982;2024-03-07T09:10:07;100781.44;;;8.27;71.87
36234;BME280;43467;50.890;5.982;2024-03-07T09:12:32;100783.81;;;8.38;72.52
36234;BME280;43467;50.890;5.982;2024-03-07T09:14:57;100786.28;;;8.44;72.92
36234;BME280;43467;50.890;5.982;2024-03-07T09:17:23;100783.44;;;8.52;72.28
36234;BME280;43467;50.890;5.982;2024-03-07T09:19:48;100786.22;;;8.47;71.67
36234;BME280;43467;50.890;5.982;2024-03-07T09:22:15;100778.31;;;8.46;71.73
36234;BME280;43467;50.890;5.982;2024-03-07T09:24:40;100781.56;;;8.55;71.66
36234;BME280;43467;50.890;5.982;2024-03-07T09:27:05;100780.00;;;8.48;70.19
36234;BME280;43467;50.890;5.982;2024-03-07T09:29:31;100780.97;;;8.46;70.06
36234;BME280;43467;50.890;5.982;2024-03-07T09:31:57;100767.13;;;8.37;69.39
36234;BME280;43467;50.890;5.982;2024-03-07T09:34:24;100770.38;;;8.47;69.09
36234;BME280;43467;50.890;5.982;2024-03-07T09:36:51;100769.16;;;8.59;69.47
36234;BME280;43467;50.890;5.982;2024-03-07T09:39:17;100775.59;;;8.49;68.45
36234;BME280;43467;50.890;5.982;2024-03-07T09:41:44;100773.81;;;8.49;69.33
36234;BME280;43467;50.890;5.982;2024-03-07T09:44:14;100765.78;;;8.54;68.90
36234;BME280;43467;50.890;5.982;2024-03-07T09:46:42;100771.03;;;8.55;67.74
36234;BME280;43467;50.890;5.982;2024-03-07T09:49:12;100768.19;;;8.61;67.54
36234;BME280;43467;50.890;5.982;2024-03-07T09:51:38;100750.81;;;8.54;68.27
36234;BME280;43467;50.890;5.982;2024-03-07T09:54:05;100768.78;;;8.71;67.18
36234;BME280;43467;50.890;5.982;2024-03-07T09:56:31;100767.78;;;8.75;66.83
36234;BME280;43467;50.890;5.982;2024-03-07T09:59:03;100764.25;;;8.76;67.77
36234;BME280;43467;50.890;5.982;2024-03-07T10:01:30;100769.53;;;8.76;66.73
36234;BME280;43467;50.890;5.982;2024-03-07T10:04:00;100774.47;;;8.86;67.08
36234;BME280;43467;50.890;5.982;2024-03-07T10:06:52;100775.28;;;8.88;67.21
36234;BME280;43467;50.890;5.982;2024-03-07T10:09:20;100771.34;;;8.74;66.65
36234;BME280;43467;50.890;5.982;2024-03-07T10:11:58;100775.38;;;8.85;66.70
36234;BME280;43467;50.890;5.982;2024-03-07T10:14:23;100773.59;;;8.86;66.58
36234;BME280;43467;50.890;5.982;2024-03-07T10:16:49;100770.63;;;8.97;65.76
36234;BME280;43467;50.890;5.982;2024-03-07T10:19:15;100770.47;;;9.03;64.98
36234;BME280;43467;50.890;5.982;2024-03-07T10:21:40;100774.50;;;9.14;65.31
36234;BME280;43467;50.890;5.982;2024-03-07T10:24:06;100766.06;;;9.02;63.41
36234;BME280;43467;50.890;5.982;2024-03-07T10:26:34;100768.53;;;9.08;62.64
36234;BME280;43467;50.890;5.982;2024-03-07T10:29:00;100770.19;;;9.12;62.26
36234;BME280;43467;50.890;5.982;2024-03-07T10:31:32;100765.00;;;9.09;62.20
36234;BME280;43467;50.890;5.982;2024-03-07T10:33:59;100752.69;;;9.08;61.97
36234;BME280;43467;50.890;5.982;2024-03-07T10:36:25;100760.91;;;8.99;60.71
36234;BME280;43467;50.890;5.982;2024-03-07T10:38:50;100756.63;;;8.95;61.14
36234;BME280;43467;50.890;5.982;2024-03-07T10:41:17;100758.34;;;8.96;60.42
36234;BME280;43467;50.890;5.982;2024-03-07T10:43:46;100749.44;;;9.00;60.59
36234;BME280;43467;50.890;5.982;2024-03-07T10:46:16;100753.63;;;9.05;60.78
36234;BME280;43467;50.890;5.982;2024-03-07T10:48:43;100758.06;;;9.05;58.92
36234;BME280;43467;50.890;5.982;2024-03-07T10:51:26;100750.19;;;9.03;57.64
36234;BME280;43467;50.890;5.982;2024-03-07T10:54:22;100750.69;;;9.16;56.77
36234;BME280;43467;50.890;5.982;2024-03-07T10:57:10;100743.25;;;9.27;57.52
36234;BME280;43467;50.890;5.982;2024-03-07T10:59:47;100747.03;;;9.46;57.36
36234;BME280;43467;50.890;5.982;2024-03-07T11:04:55;100732.53;;;9.58;57.98
36234;BME280;43467;50.890;5.982;2024-03-07T11:07:22;100736.66;;;9.66;56.23
36234;BME280;43467;50.890;5.982;2024-03-07T11:09:52;100729.28;;;9.76;55.53
36234;BME280;43467;50.890;5.982;2024-03-07T11:12:24;100730.19;;;9.75;54.33
36234;BME280;43467;50.890;5.982;2024-03-07T11:14:53;100729.16;;;9.79;54.32
36234;BME280;43467;50.890;5.982;2024-03-07T11:17:21;100728.22;;;9.82;54.46
36234;BME280;43467;50.890;5.982;2024-03-07T11:19:47;100707.66;;;9.90;55.44
36234;BME280;43467;50.890;5.982;2024-03-07T11:22:31;100711.47;;;9.81;54.07
36234;BME280;43467;50.890;5.982;2024-03-07T11:25:00;100709.47;;;9.88;54.28
36234;BME280;43467;50.890;5.982;2024-03-07T11:27:31;100712.72;;;9.96;54.11
36234;BME280;43467;50.890;5.982;2024-03-07T11:30:04;100703.75;;;10.00;53.05
36234;BME280;43467;50.890;5.982;2024-03-07T11:32:34;100706.94;;;10.09;53.41
36234;BME280;43467;50.890;5.982;2024-03-07T11:34:59;100684.16;;;10.05;53.86
36234;BME280;43467;50.890;5.982;2024-03-07T11:37:45;100705.63;;;10.22;53.02
36234;BME280;43467;50.890;5.982;2024-03-07T11:42:59;100701.44;;;10.15;51.51
36234;BME280;43467;50.890;5.982;2024-03-07T11:45:26;100689.13;;;10.14;52.86
36234;BME280;43467;50.890;5.982;2024-03-07T11:47:54;100692.25;;;10.25;54.07
36234;BME280;43467;50.890;5.982;2024-03-07T11:50:27;100691.44;;;10.23;52.74
36234;BME280;43467;50.890;5.982;2024-03-07T11:52:54;100685.25;;;10.24;52.77
36234;BME280;43467;50.890;5.982;2024-03-07T11:55:21;100681.59;;;10.27;53.31
36234;BME280;43467;50.890;5.982;2024-03-07T11:57:47;100690.06;;;10.37;54.21
36234;BME280;43467;50.890;5.982;2024-03-07T12:00:14;100676.25;;;10.29;53.13
36234;BME280;43467;50.890;5.982;2024-03-07T12:02:41;100671.25;;;10.21;53.45
36234;BME280;43467;50.890;5.982;2024-03-07T12:05:09;100667.41;;;10.05;53.78
36234;BME280;43467;50.890;5.982;2024-03-07T12:07:34;100650.06;;;9.98;53.95
36234;BME280;43467;50.890;5.982;2024-03-07T12:10:01;100651.66;;;10.02;54.64
36234;BME280;43467;50.890;5.982;2024-03-07T12:12:30;100653.44;;;10.01;54.21
36234;BME280;43467;50.890;5.982;2024-03-07T12:14:56;100649.09;;;9.99;54.80
36234;BME280;43467;50.890;5.982;2024-03-07T12:17:22;100632.50;;;9.95;54.94
36234;BME280;43467;50.890;5.982;2024-03-07T12:19:48;100627.38;;;9.91;54.68
36234;BME280;43467;50.890;5.982;2024-03-07T12:22:20;100627.38;;;9.91;54.32
36234;BME280;43467;50.890;5.982;2024-03-07T12:24:59;100639.56;;;9.95;52.70
36234;BME280;43467;50.890;5.982;2024-03-07T12:27:26;100628.97;;;9.95;51.98
36234;BME280;43467;50.890;5.982;2024-03-07T12:29:52;100624.56;;;9.95;52.42
36234;BME280;43467;50.890;5.982;2024-03-07T12:32:19;100618.16;;;10.02;51.92
36234;BME280;43467;50.890;5.982;2024-03-07T12:34:44;100603.97;;;10.03;52.51
36234;BME280;43467;50.890;5.982;2024-03-07T12:37:15;100621.53;;;10.06;51.47
36234;BME280;43467;50.890;5.982;2024-03-07T12:39:42;100613.31;;;10.13;51.71
36234;BME280;43467;50.890;5.982;2024-03-07T12:42:16;100616.38;;;10.26;51.11
36234;BME280;43467;50.890;5.982;2024-03-07T12:44:47;100613.66;;;10.27;51.04
36234;BME280;43467;50.890;5.982;2024-03-07T12:47:13;100607.16;;;10.36;51.41
36234;BME280;43467;50.890;5.982;2024-03-07T12:49:40;100610.38;;;10.44;51.44
36234;BME280;43467;50.890;5.982;2024-03-07T12:52:06;100605.75;;;10.49;51.09
36234;BME280;43467;50.890;5.982;2024-03-07T12:54:34;100588.59;;;10.59;50.89
36234;BME280;43467;50.890;5.982;2024-03-07T12:57:00;100587.06;;;10.76;50.98
36234;BME280;43467;50.890;5.982;2024-03-07T12:59:25;100592.78;;;10.87;51.04
36234;BME280;43467;50.890;5.982;2024-03-07T13:01:51;100579.03;;;10.77;49.33
36234;BME280;43467;50.890;5.982;2024-03-07T13:04:16;100577.00;;;10.84;49.71
36234;BME280;43467;50.890;5.982;2024-03-07T13:06:42;100570.34;;;10.95;49.77